createdAt,value
2018-02-10T00:00:52.620Z,99902.55
2018-02-10T00:03:21.016Z,99894.38
2018-02-10T00:05:49.453Z,99892.81
2018-02-10T00:08:17.863Z,99892.87
2018-02-10T00:10:46.279Z,99891.20
2018-02-10T00:13:14.749Z,99900.72
2018-02-10T00:15:43.151Z,99905.58
2018-02-10T00:18:11.554Z,99900.00
2018-02-10T00:20:39.998Z,99900.16
2018-02-10T00:23:08.409Z,99903.77
2018-02-10T00:25:36.802Z,99895.21
2018-02-10T00:28:05.273Z,99898.82
2018-02-10T00:30:33.685Z,99896.52
2018-02-10T00:33:02.102Z,99903.98
2018-02-10T00:35:30.536Z,99897.23
2018-02-10T00:37:58.964Z,99901.95
2018-02-10T00:40:27.379Z,99904.52
2018-02-10T00:42:55.820Z,99901.95
2018-02-10T00:45:24.296Z,99898.55
2018-02-10T00:47:52.693Z,99893.39
2018-02-10T00:50:21.167Z,99894.88
2018-02-10T00:52:49.565Z,99900.22
2018-02-10T00:55:17.998Z,99899.41
2018-02-10T00:57:46.445Z,99899.23
2018-02-10T01:00:14.865Z,99895.63
2018-02-10T01:02:43.302Z,99896.50
2018-02-10T01:05:11.759Z,99899.74
2018-02-10T01:07:40.181Z,99906.17
2018-02-10T01:10:08.602Z,99904.30
2018-02-10T01:12:37.041Z,99906.92
2018-02-10T01:15:05.450Z,99910.77
2018-02-10T01:17:33.848Z,99912.38
2018-02-10T01:20:02.306Z,99912.46
2018-02-10T01:22:30.714Z,99918.78
2018-02-10T01:24:59.112Z,99914.45
2018-02-10T01:27:27.761Z,99913.32
2018-02-10T01:29:56.160Z,99912.34
2018-02-10T01:32:24.575Z,99916.98
2018-02-10T01:34:53.030Z,99907.98
2018-02-10T01:37:21.423Z,99911.41
2018-02-10T01:39:49.823Z,99906.95
2018-02-10T01:42:18.265Z,99903.53
2018-02-10T01:44:46.682Z,99907.52
2018-02-10T01:47:15.098Z,99911.80
2018-02-10T01:49:43.551Z,99919.38
2018-02-10T01:52:11.973Z,99916.02
2018-02-10T01:54:40.390Z,99909.52
2018-02-10T01:57:08.836Z,99914.26
2018-02-10T01:59:37.228Z,99916.55
2018-02-10T02:02:05.648Z,99910.20
2018-02-10T02:04:34.081Z,99911.13
2018-02-10T02:07:02.487Z,99914.62
2018-02-10T02:09:30.880Z,99914.71
2018-02-10T02:11:59.354Z,99912.59
2018-02-10T02:14:27.770Z,99908.45
2018-02-10T02:16:56.185Z,99912.02
2018-02-10T02:19:24.657Z,99904.33
2018-02-10T02:21:53.056Z,99903.64
2018-02-10T02:24:21.447Z,99907.22
2018-02-10T02:26:49.906Z,99903.42
2018-02-10T02:29:18.317Z,99903.76
2018-02-10T02:31:46.716Z,99904.13
2018-02-10T02:34:15.178Z,99909.66
2018-02-10T02:36:43.566Z,99905.06
2018-02-10T02:39:11.983Z,99901.08
2018-02-10T02:41:40.436Z,99900.41
2018-02-10T02:44:08.890Z,99901.94
2018-02-10T02:46:37.336Z,99908.11
2018-02-10T02:49:05.777Z,99900.52
2018-02-10T02:51:34.162Z,99899.36
2018-02-10T02:54:02.564Z,99904.13
2018-02-10T02:56:31.016Z,99902.64
2018-02-10T02:58:59.433Z,99903.31
2018-02-10T03:01:27.833Z,99898.27
2018-02-10T03:03:56.409Z,99893.03
2018-02-10T03:06:24.836Z,99893.14
2018-02-10T03:08:53.241Z,99891.39
2018-02-10T03:11:21.674Z,99888.27
2018-02-10T03:13:50.077Z,99894.41
2018-02-10T03:16:18.469Z,99896.94
2018-02-10T03:18:46.921Z,99894.94
2018-02-10T03:21:15.317Z,99899.56
2018-02-10T03:23:43.739Z,99898.33
2018-02-10T03:26:12.177Z,99894.13
2018-02-10T03:28:40.602Z,99898.66
2018-02-10T03:31:09.022Z,99894.93
2018-02-10T03:33:37.495Z,99902.48
2018-02-10T03:36:06.047Z,99895.56
2018-02-10T03:38:34.466Z,99902.40
2018-02-10T03:41:02.930Z,99904.91
2018-02-10T03:43:31.351Z,99907.33
2018-02-10T03:45:59.764Z,99902.48
2018-02-10T03:48:28.433Z,99902.16
2018-02-10T03:50:56.844Z,99907.30
2018-02-10T03:53:25.235Z,99902.31
2018-02-10T03:55:53.736Z,99903.59
2018-02-10T03:58:22.129Z,99908.14
2018-02-10T04:00:50.549Z,99909.36
2018-02-10T04:03:19.149Z,99912.88
2018-02-10T04:05:47.542Z,99912.77
2018-02-10T04:08:15.930Z,99907.50
2018-02-10T04:10:44.368Z,99909.52
2018-02-10T04:13:12.779Z,99911.63
2018-02-10T04:15:41.177Z,99908.81
2018-02-10T04:18:09.629Z,99911.94
2018-02-10T04:20:38.027Z,99917.00
2018-02-10T04:23:06.430Z,99914.58
2018-02-10T04:25:34.877Z,99916.25
2018-02-10T04:28:03.280Z,99912.85
2018-02-10T04:30:31.698Z,99917.17
2018-02-10T04:33:00.157Z,99917.39
2018-02-10T04:35:28.558Z,99912.13
2018-02-10T04:37:56.970Z,99919.45
2018-02-10T04:40:25.421Z,99921.16
2018-02-10T04:42:53.828Z,99921.91
2018-02-10T04:45:22.222Z,99922.41
2018-02-10T04:47:50.664Z,99924.06
2018-02-10T04:50:19.076Z,99920.45
2018-02-10T04:52:47.481Z,99924.84
2018-02-10T04:55:15.914Z,99920.38
2018-02-10T04:57:44.313Z,99925.89
2018-02-10T05:00:12.723Z,99916.64
2018-02-10T05:02:41.278Z,99917.92
2018-02-10T05:05:09.696Z,99923.88
2018-02-10T05:07:38.123Z,99918.67
2018-02-10T05:10:06.601Z,99918.12
2018-02-10T05:12:35.027Z,99922.19
2018-02-10T05:15:03.456Z,99920.84
2018-02-10T05:17:31.905Z,99924.25
2018-02-10T05:20:00.298Z,99928.34
2018-02-10T05:22:28.714Z,99927.52
2018-02-10T05:24:57.181Z,99927.42
2018-02-10T05:27:25.599Z,99931.27
2018-02-10T05:29:54.013Z,99934.70
2018-02-10T05:32:22.447Z,99940.91
2018-02-10T05:34:50.829Z,99942.11
2018-02-10T05:37:19.248Z,99939.44
2018-02-10T05:39:47.689Z,99938.38
2018-02-10T05:42:16.102Z,99941.69
2018-02-10T05:44:44.497Z,99938.88
2018-02-10T05:47:12.939Z,99933.74
2018-02-10T05:49:41.378Z,99941.08
2018-02-10T05:52:09.799Z,99942.99
2018-02-10T05:54:38.241Z,99945.36
2018-02-10T05:57:06.638Z,99947.81
2018-02-10T05:59:35.035Z,99949.52
2018-02-10T06:02:03.477Z,99953.80
2018-02-10T06:04:31.888Z,99950.58
2018-02-10T06:07:00.304Z,99957.13
2018-02-10T06:09:28.757Z,99949.53
2018-02-10T06:11:57.174Z,99944.16
2018-02-10T06:14:25.597Z,99943.88
2018-02-10T06:16:54.633Z,99948.80
2018-02-10T06:19:23.033Z,99950.77
2018-02-10T06:21:51.439Z,99958.48
2018-02-10T06:24:19.874Z,99964.84
2018-02-10T06:26:48.276Z,99968.02
2018-02-10T06:29:16.685Z,118368.60
2018-02-10T06:31:45.170Z,118368.60
2018-02-10T06:34:13.585Z,118368.60
2018-02-10T06:36:42.009Z,99960.38
2018-02-10T06:39:10.506Z,118368.60
2018-02-10T06:41:38.953Z,118368.60
2018-02-10T06:44:07.429Z,118368.60
2018-02-10T06:46:35.936Z,118368.60
2018-02-10T06:49:04.389Z,118368.60
2018-02-10T06:51:32.824Z,118368.60
2018-02-10T06:54:01.291Z,118368.60
2018-02-10T06:56:29.715Z,118368.60
2018-02-10T06:58:58.150Z,118368.60
2018-02-10T07:01:26.645Z,118368.60
2018-02-10T07:03:55.069Z,118368.60
2018-02-10T07:06:23.478Z,118368.60
2018-02-10T07:08:52.183Z,118368.60
2018-02-10T07:11:20.603Z,118368.60
2018-02-10T07:13:49.023Z,118368.60
2018-02-10T07:16:17.485Z,118368.60
2018-02-10T07:18:45.897Z,118368.60
2018-02-10T07:21:14.321Z,118368.60
2018-02-10T07:23:42.773Z,118368.60
2018-02-10T07:26:11.208Z,118368.60
2018-02-10T07:28:39.629Z,118368.60
2018-02-10T07:31:08.121Z,118368.60
2018-02-10T07:33:36.545Z,118368.60
2018-02-10T07:36:04.961Z,118368.60
2018-02-10T07:38:33.426Z,118368.60
2018-02-10T07:41:01.850Z,118368.60
2018-02-10T07:43:30.280Z,118368.60
2018-02-10T07:45:58.742Z,118368.60
2018-02-10T07:48:27.154Z,118368.60
2018-02-10T07:50:55.584Z,118368.60
2018-02-10T07:53:24.069Z,118368.60
2018-02-10T07:55:52.487Z,118368.60
2018-02-10T07:58:20.909Z,118368.60
2018-02-10T08:00:49.404Z,118368.60
2018-02-10T08:03:17.833Z,118368.60
2018-02-10T08:05:46.269Z,118368.60
2018-02-10T08:08:14.747Z,118368.60
2018-02-10T08:10:43.188Z,118368.60
2018-02-10T08:13:11.637Z,118368.60
2018-02-10T08:15:40.137Z,118368.60
2018-02-10T08:18:08.586Z,118368.60
2018-02-10T08:20:37.019Z,118368.60
2018-02-10T08:23:05.500Z,118368.60
2018-02-10T08:25:33.953Z,118368.60
2018-02-10T08:28:02.386Z,118368.60
2018-02-10T08:30:30.852Z,118368.60
2018-02-10T08:32:59.283Z,118368.60
2018-02-10T08:35:27.750Z,118368.60
2018-02-10T08:37:56.259Z,118368.60
2018-02-10T08:40:24.702Z,118368.60
2018-02-10T08:42:53.137Z,118368.60
2018-02-10T08:45:21.603Z,118368.60
2018-02-10T08:47:50.067Z,118368.60
2018-02-10T08:50:18.534Z,118368.60
2018-02-10T08:52:47.088Z,118368.60
2018-02-10T08:55:15.545Z,118368.60
2018-02-10T08:57:44.003Z,118368.60
2018-02-10T09:00:12.479Z,118368.60
2018-02-10T09:02:40.911Z,118368.60
2018-02-10T09:05:09.412Z,118368.60
2018-02-10T09:07:37.908Z,118368.60
2018-02-10T09:10:06.348Z,118368.60
2018-02-10T09:12:34.795Z,118368.60
2018-02-10T09:15:03.317Z,118368.60
2018-02-10T09:17:31.744Z,118368.60
2018-02-10T09:20:00.192Z,118368.60
2018-02-10T09:23:40.747Z,99949.20
2018-02-10T09:26:09.151Z,99954.47
2018-02-10T09:28:37.570Z,99955.27
2018-02-10T09:31:06.032Z,99955.20
2018-02-10T09:33:34.449Z,99954.53
2018-02-10T09:36:02.886Z,99954.16
2018-02-10T09:38:31.332Z,99955.66
2018-02-10T09:40:59.735Z,99961.80
2018-02-10T09:43:28.156Z,99956.77
2018-02-10T09:45:56.625Z,99956.17
2018-02-10T09:48:25.019Z,99952.16
2018-02-10T09:50:53.429Z,99947.72
2018-02-10T09:56:24.527Z,99946.27
2018-02-10T09:58:52.984Z,99949.35
2018-02-10T10:01:21.416Z,99951.44
2018-02-10T10:03:49.855Z,99945.52
2018-02-10T10:06:18.517Z,99950.36
2018-02-10T10:08:46.910Z,99954.45
2018-02-10T10:11:15.311Z,99957.25
2018-02-10T10:13:43.765Z,99950.36
2018-02-10T10:16:12.166Z,99952.02
2018-02-10T10:18:40.571Z,99956.22
2018-02-10T10:21:09.020Z,99953.20
2018-02-10T10:23:37.434Z,99957.64
2018-02-10T10:26:05.837Z,99960.83
2018-02-10T10:28:34.303Z,99963.84
2018-02-10T10:31:02.712Z,99957.70
2018-02-10T10:33:31.121Z,99956.02
2018-02-10T10:35:59.577Z,99958.30
2018-02-10T10:38:28.042Z,99957.81
2018-02-10T10:40:56.447Z,99956.32
2018-02-10T10:43:24.888Z,99946.00
2018-02-10T10:45:53.297Z,99949.73
2018-02-10T10:48:21.705Z,99951.16
2018-02-10T10:50:50.173Z,99945.48
2018-02-10T10:53:18.589Z,99942.95
2018-02-10T10:55:46.996Z,99936.22
2018-02-10T10:58:15.446Z,99933.37
2018-02-10T11:00:43.840Z,99932.27
2018-02-10T11:03:12.261Z,99931.58
2018-02-10T11:05:40.726Z,99931.19
2018-02-10T11:08:09.130Z,99935.94
2018-02-10T11:10:37.543Z,99935.17
2018-02-10T11:13:05.994Z,99935.77
2018-02-10T11:15:34.408Z,99927.72
2018-02-10T11:18:02.824Z,99929.56
2018-02-10T11:20:31.279Z,99929.68
2018-02-10T11:22:59.685Z,99929.50
2018-02-10T11:25:28.109Z,99921.32
2018-02-10T11:27:56.550Z,99921.05
2018-02-10T11:30:24.956Z,99927.01
2018-02-10T11:32:54.224Z,99927.17
2018-02-10T11:35:22.666Z,99925.11
2018-02-10T11:37:51.087Z,99923.97
2018-02-10T11:40:19.499Z,99926.77
2018-02-10T11:42:47.956Z,99923.88
2018-02-10T11:45:16.362Z,99917.78
2018-02-10T11:47:44.762Z,99922.02
2018-02-10T11:50:13.215Z,99922.38
2018-02-10T11:52:41.637Z,99920.52
2018-02-10T11:55:10.067Z,99927.95
2018-02-10T11:57:38.529Z,99931.14
2018-02-10T12:00:06.931Z,99926.45
2018-02-10T12:02:35.332Z,99934.06
2018-02-10T12:05:03.784Z,99929.75
2018-02-10T12:07:32.195Z,99931.46
2018-02-10T12:10:00.617Z,99929.64
2018-02-10T12:12:29.078Z,99928.84
2018-02-10T12:14:57.465Z,99924.16
2018-02-10T12:17:25.930Z,99928.17
2018-02-10T12:19:54.398Z,99922.66
2018-02-10T12:22:22.792Z,99926.50
2018-02-10T12:24:51.694Z,99921.55
2018-02-10T12:27:20.145Z,99916.17
2018-02-10T12:29:48.549Z,99917.52
2018-02-10T12:32:16.951Z,99921.84
2018-02-10T12:34:45.419Z,99913.23
2018-02-10T12:37:13.831Z,99915.84
2018-02-10T12:39:42.227Z,99914.57
2018-02-10T12:42:10.723Z,99915.44
2018-02-10T12:44:39.121Z,99912.73
2018-02-10T12:47:07.520Z,99908.20
2018-02-10T12:49:35.978Z,99913.09
2018-02-10T12:52:04.383Z,99912.53
2018-02-10T12:54:32.780Z,99904.26
2018-02-10T12:57:01.373Z,99905.59
2018-02-10T12:59:29.786Z,99904.30
2018-02-10T13:01:58.192Z,99899.19
2018-02-10T13:04:26.658Z,99901.05
2018-02-10T13:06:55.055Z,99899.09
2018-02-10T13:09:23.472Z,99902.47
2018-02-10T13:11:51.931Z,99890.97
2018-02-10T13:14:20.712Z,99895.23
2018-02-10T13:16:49.161Z,99897.72
2018-02-10T13:19:17.613Z,99892.13
2018-02-10T13:21:45.998Z,99890.17
2018-02-10T13:24:14.383Z,99891.27
2018-02-10T13:26:42.829Z,99887.13
2018-02-10T13:29:11.241Z,99883.68
2018-02-10T13:31:39.635Z,99885.38
2018-02-10T13:34:08.108Z,99885.94
2018-02-10T13:36:36.526Z,99884.33
2018-02-10T13:39:04.953Z,99883.31
2018-02-10T13:41:33.407Z,99880.00
2018-02-10T13:44:01.828Z,99879.31
2018-02-10T13:46:30.243Z,99878.05
2018-02-10T13:48:58.697Z,99879.78
2018-02-10T13:51:27.120Z,99871.17
2018-02-10T13:53:55.557Z,99877.94
2018-02-10T13:56:24.099Z,99879.73
2018-02-10T13:58:52.490Z,99877.11
2018-02-10T14:01:20.901Z,99875.21
2018-02-10T14:03:49.329Z,99879.89
2018-02-10T14:06:17.719Z,99863.81
2018-02-10T14:08:46.103Z,99857.60
2018-02-10T14:11:14.532Z,99859.17
2018-02-10T14:13:42.922Z,99848.73
2018-02-10T14:16:11.327Z,99839.46
2018-02-10T14:18:39.796Z,99838.30
2018-02-10T14:21:08.202Z,99847.00
2018-02-10T14:23:36.629Z,99835.97
2018-02-10T14:26:05.066Z,99834.15
2018-02-10T14:28:33.468Z,99839.83
2018-02-10T14:31:01.877Z,99837.68
2018-02-10T14:33:30.360Z,99835.02
2018-02-10T14:35:58.766Z,99827.07
2018-02-10T14:38:27.175Z,99825.03
2018-02-10T14:40:55.613Z,99823.79
2018-02-10T14:43:24.024Z,99816.52
2018-02-10T14:45:52.423Z,99819.95
2018-02-10T14:48:20.854Z,99823.38
2018-02-10T14:50:49.269Z,99826.95
2018-02-10T14:53:17.659Z,99823.27
2018-02-10T14:55:46.927Z,99812.61
2018-02-10T14:58:15.337Z,99815.63
2018-02-10T15:00:43.746Z,99811.41
2018-02-10T15:03:12.204Z,99811.78
2018-02-10T15:05:40.624Z,99811.36
2018-02-10T15:08:09.161Z,99815.58
2018-02-10T15:10:37.602Z,99817.02
2018-02-10T15:13:06.019Z,99816.41
2018-02-10T15:15:34.432Z,99810.58
2018-02-10T15:18:02.890Z,99809.93
2018-02-10T15:20:31.299Z,99815.31
2018-02-10T15:22:59.742Z,99810.20
2018-02-10T15:25:28.219Z,99809.41
2018-02-10T15:27:56.633Z,99808.72
2018-02-10T15:30:36.895Z,99807.86
2018-02-10T15:33:17.203Z,99809.55
2018-02-10T15:35:45.633Z,99810.84
2018-02-10T15:38:14.022Z,99811.77
2018-02-10T15:40:42.432Z,99812.34
2018-02-10T15:43:10.906Z,99802.13
2018-02-10T15:45:39.303Z,99802.40
2018-02-10T15:48:07.711Z,99805.18
2018-02-10T15:50:36.146Z,99806.20
2018-02-10T15:53:04.555Z,99795.55
2018-02-10T15:55:32.981Z,99793.44
2018-02-10T15:58:01.442Z,99786.95
2018-02-10T16:00:29.837Z,99785.91
2018-02-10T16:02:58.237Z,99789.89
2018-02-10T16:05:26.683Z,99793.96
2018-02-10T16:07:55.101Z,99797.13
2018-02-10T16:10:23.505Z,99808.73
2018-02-10T16:12:51.954Z,99800.70
2018-02-10T16:15:20.360Z,99796.00
2018-02-10T16:17:48.762Z,99792.23
2018-02-10T16:20:17.209Z,99790.01
2018-02-10T16:22:45.616Z,99793.81
2018-02-10T16:25:14.013Z,99791.48
2018-02-10T16:27:42.482Z,99792.95
2018-02-10T16:30:10.895Z,99789.78
2018-02-10T16:32:39.320Z,99797.88
2018-02-10T16:35:07.941Z,99794.87
2018-02-10T16:37:36.346Z,99797.23
2018-02-10T16:40:04.780Z,99797.23
2018-02-10T16:42:33.239Z,99794.83
2018-02-10T16:45:01.633Z,99789.41
2018-02-10T16:47:30.030Z,99784.36
2018-02-10T16:49:58.470Z,99786.24
2018-02-10T16:52:26.863Z,99792.16
2018-02-10T16:54:55.286Z,99791.10
2018-02-10T16:57:23.743Z,99787.83
2018-02-10T16:59:52.148Z,99790.42
2018-02-10T17:02:20.546Z,99784.36
2018-02-10T17:04:49.019Z,99785.00
2018-02-10T17:07:17.450Z,99777.12
2018-02-10T17:09:45.838Z,99780.37
2018-02-10T17:12:14.330Z,99772.53
2018-02-10T17:14:42.748Z,99772.77
2018-02-10T17:17:11.148Z,99773.52
2018-02-10T17:19:39.592Z,99759.62
2018-02-10T17:22:08.236Z,99749.83
2018-02-10T17:24:36.641Z,99756.11
2018-02-10T17:27:05.133Z,99761.95
2018-02-10T17:29:33.534Z,99767.61
2018-02-10T17:32:01.945Z,99764.02
2018-02-10T17:34:30.386Z,99759.58
2018-02-10T17:36:58.797Z,99748.23
2018-02-10T17:39:27.250Z,99744.17
2018-02-10T17:41:55.735Z,99745.83
2018-02-10T17:44:24.131Z,99741.02
2018-02-10T17:46:52.772Z,99741.50
2018-02-10T17:49:21.215Z,99749.26
2018-02-10T17:51:49.624Z,99746.40
2018-02-10T17:54:18.082Z,99743.48
2018-02-10T17:56:46.540Z,99742.48
2018-02-10T17:59:16.382Z,99753.78
2018-02-10T18:01:44.805Z,99752.62
2018-02-10T18:04:13.280Z,99752.31
2018-02-10T18:06:41.693Z,99747.19
2018-02-10T18:09:10.109Z,99744.78
2018-02-10T18:11:39.181Z,99734.02
2018-02-10T18:14:08.352Z,99738.11
2018-02-10T18:16:36.750Z,99734.23
2018-02-10T18:19:05.189Z,99741.69
2018-02-10T18:21:35.331Z,99741.50
2018-02-10T18:24:03.734Z,99741.56
2018-02-10T18:26:32.187Z,99744.92
2018-02-10T18:29:00.582Z,99746.09
2018-02-10T18:31:28.993Z,99745.91
2018-02-10T18:33:57.435Z,99742.85
2018-02-10T18:36:25.840Z,99739.77
2018-02-10T18:38:54.242Z,99733.22
2018-02-10T18:41:22.831Z,99734.73
2018-02-10T18:43:51.248Z,99742.03
2018-02-10T18:46:19.663Z,99733.19
2018-02-10T18:48:48.115Z,99738.72
2018-02-10T18:51:16.520Z,99731.45
2018-02-10T18:53:44.928Z,99737.14
2018-02-10T18:56:13.359Z,99729.12
2018-02-10T18:58:41.754Z,99722.91
2018-02-10T19:01:10.143Z,99722.41
2018-02-10T19:03:38.666Z,99718.42
2018-02-10T19:06:07.072Z,99713.34
2018-02-10T19:08:35.472Z,99706.63
2018-02-10T19:11:03.932Z,99705.22
2018-02-10T19:13:32.355Z,99707.42
2018-02-10T19:16:00.752Z,99703.83
2018-02-10T19:18:30.656Z,99699.95
2018-02-10T19:20:59.052Z,99698.05
2018-02-10T19:23:27.457Z,99704.75
2018-02-10T19:25:55.911Z,99708.29
2018-02-10T19:28:24.322Z,99708.73
2018-02-10T19:30:52.724Z,99709.98
2018-02-10T19:33:21.176Z,99704.48
2018-02-10T19:35:49.594Z,99710.05
2018-02-10T19:38:18.003Z,99712.61
2018-02-10T19:40:46.464Z,99710.32
2018-02-10T19:43:14.886Z,99702.47
2018-02-10T19:45:43.284Z,99705.66
2018-02-10T19:48:11.748Z,99701.00
2018-02-10T19:50:40.143Z,99703.92
2018-02-10T19:53:08.548Z,99704.85
2018-02-10T19:55:37.004Z,99701.08
2018-02-10T19:58:05.428Z,99700.56
2018-02-10T20:00:33.840Z,99692.33
2018-02-10T20:03:02.297Z,99697.64
2018-02-10T20:05:30.697Z,99691.01
2018-02-10T20:07:59.106Z,99691.95
2018-02-10T20:10:27.579Z,99693.16
2018-02-10T20:12:56.003Z,99685.06
2018-02-10T20:15:24.420Z,99686.42
2018-02-10T20:17:52.907Z,99687.19
2018-02-10T20:20:21.319Z,99687.34
2018-02-10T20:22:49.721Z,99677.28
2018-02-10T20:25:18.217Z,99675.22
2018-02-10T20:27:46.614Z,99676.84
2018-02-10T20:30:15.022Z,99678.41
2018-02-10T20:32:43.464Z,99680.11
2018-02-10T20:35:11.857Z,99674.16
2018-02-10T20:37:40.289Z,99670.70
2018-02-10T20:40:08.742Z,99665.11
2018-02-10T20:42:37.151Z,99666.95
2018-02-10T20:45:05.554Z,99664.81
2018-02-10T20:47:34.628Z,99663.20
2018-02-10T20:50:03.030Z,99654.75
2018-02-10T20:52:31.442Z,99655.99
2018-02-10T20:54:59.899Z,99646.88
2018-02-10T20:57:28.307Z,99654.91
2018-02-10T20:59:56.713Z,99644.16
2018-02-10T21:02:25.189Z,99642.50
2018-02-10T21:04:53.594Z,99635.68
2018-02-10T21:07:21.989Z,99636.69
2018-02-10T21:09:50.438Z,99631.20
2018-02-10T21:12:18.879Z,99631.23
2018-02-10T21:14:47.303Z,99625.39
2018-02-10T21:17:16.110Z,99616.22
2018-02-10T21:19:44.509Z,99610.77
2018-02-10T21:22:12.913Z,99605.06
2018-02-10T21:24:41.362Z,99601.12
2018-02-10T21:27:09.784Z,99600.20
2018-02-10T21:29:38.189Z,99591.55
2018-02-10T21:32:06.630Z,99585.80
2018-02-10T21:34:35.239Z,99585.04
2018-02-10T21:37:03.486Z,99582.41
2018-02-10T21:39:31.945Z,99582.63
2018-02-10T21:42:00.386Z,99576.58
2018-02-10T21:44:28.812Z,99575.28
2018-02-10T21:46:58.313Z,99573.83
2018-02-10T21:49:26.716Z,99565.55
2018-02-10T21:51:55.149Z,99568.59
2018-02-10T21:54:23.607Z,99556.89
2018-02-10T21:56:52.002Z,99559.09
2018-02-10T21:59:20.423Z,99552.97
2018-02-10T22:01:48.880Z,99552.29
2018-02-10T22:04:17.319Z,99554.98
2018-02-10T22:06:45.731Z,99558.88
2018-02-10T22:09:14.351Z,99569.89
2018-02-10T22:11:42.744Z,99565.47
2018-02-10T22:14:11.169Z,99556.99
2018-02-10T22:16:39.617Z,99549.24
2018-02-10T22:19:08.024Z,99541.13
2018-02-10T22:21:36.432Z,99538.80
2018-02-10T22:24:04.912Z,99538.49
2018-02-10T22:26:33.332Z,99533.78
2018-02-10T22:29:01.754Z,99537.55
2018-02-10T22:31:30.271Z,99537.89
2018-02-10T22:33:58.654Z,99532.58
2018-02-10T22:36:27.055Z,99527.77
2018-02-10T22:38:55.655Z,99521.97
2018-02-10T22:41:24.087Z,99529.22
2018-02-10T22:43:52.497Z,99519.80
2018-02-10T22:46:20.931Z,99514.03
2018-02-10T22:48:49.331Z,99514.23
2018-02-10T22:51:17.718Z,99504.63
2018-02-10T22:53:46.165Z,99492.88
2018-02-10T22:56:14.562Z,99489.45
2018-02-10T22:58:42.967Z,99489.67
2018-02-10T23:01:17.226Z,99481.61
2018-02-10T23:03:45.641Z,99486.08
2018-02-10T23:06:14.056Z,99486.32
2018-02-10T23:08:42.502Z,99476.23
2018-02-10T23:11:10.965Z,99472.20
2018-02-10T23:13:39.377Z,99467.91
2018-02-10T23:16:07.867Z,99467.49
2018-02-10T23:18:36.277Z,99463.05
2018-02-10T23:21:04.661Z,99463.66
2018-02-10T23:23:33.113Z,99453.89
2018-02-10T23:26:01.535Z,99445.73
2018-02-10T23:28:29.934Z,99433.05
2018-02-10T23:30:58.401Z,99434.82
2018-02-10T23:33:26.808Z,99420.33
2018-02-10T23:35:55.205Z,99418.47
2018-02-10T23:38:23.642Z,99408.67
2018-02-10T23:40:52.038Z,99411.03
2018-02-10T23:43:20.418Z,99405.33
2018-02-10T23:45:48.899Z,99406.66
2018-02-10T23:48:17.316Z,99403.19
2018-02-10T23:50:45.739Z,99400.88
2018-02-10T23:53:14.170Z,99388.66
2018-02-10T23:55:42.567Z,99384.78
2018-02-10T23:58:10.990Z,99382.35
